sensor_id;sensor_type;location;lat;lon;timestamp;temperature;humidity
19031;DHT22;9648;51.130;13.978;2022-08-23T00:01:45;15.90;99.90
19031;DHT22;9648;51.130;13.978;2022-08-23T00:04:16;15.90;99.90
19031;DHT22;9648;51.130;13.978;2022-08-23T00:06:44;16.00;99.90
19031;DHT22;9648;51.130;13.978;2022-08-23T00:09:12;16.00;99.90
19031;DHT22;9648;51.130;13.978;2022-08-23T00:11:42;16.00;99.90
19031;DHT22;9648;51.130;13.978;2022-08-23T00:14:11;16.00;99.90
19031;DHT22;9648;51.130;13.978;2022-08-23T00:16:39;15.90;99.90
19031;DHT22;9648;51.130;13.978;2022-08-23T00:19:08;15.90;99.90
19031;DHT22;9648;51.130;13.978;2022-08-23T00:21:37;15.90;99.90
19031;DHT22;9648;51.130;13.978;2022-08-23T00:24:05;15.90;99.90
19031;DHT22;9648;51.130;13.978;2022-08-23T00:26:53;15.90;99.90
19031;DHT22;9648;51.130;13.978;2022-08-23T00:29:21;15.90;99.90
19031;DHT22;9648;51.130;13.978;2022-08-23T00:31:48;15.90;99.90
19031;DHT22;9648;51.130;13.978;2022-08-23T00:34:15;15.90;99.90
19031;DHT22;9648;51.130;13.978;2022-08-23T00:36:43;16.00;99.90
19031;DHT22;9648;51.130;13.978;2022-08-23T00:39:10;15.90;99.90
19031;DHT22;9648;51.130;13.978;2022-08-23T00:41:38;15.90;99.90
19031;DHT22;9648;51.130;13.978;2022-08-23T00:44:05;16.00;99.90
19031;DHT22;9648;51.130;13.978;2022-08-23T00:46:56;15.90;99.90
19031;DHT22;9648;51.130;13.978;2022-08-23T00:49:46;16.00;99.90
19031;DHT22;9648;51.130;13.978;2022-08-23T00:52:20;15.90;99.90
19031;DHT22;9648;51.130;13.978;2022-08-23T00:54:50;15.90;99.90
19031;DHT22;9648;51.130;13.978;2022-08-23T00:57:18;15.90;99.90
19031;DHT22;9648;51.130;13.978;2022-08-23T00:59:46;15.90;99.90
19031;DHT22;9648;51.130;13.978;2022-08-23T01:02:13;15.90;99.90
19031;DHT22;9648;51.130;13.978;2022-08-23T01:04:43;15.90;99.90
19031;DHT22;9648;51.130;13.978;2022-08-23T01:07:14;16.00;99.90
19031;DHT22;9648;51.130;13.978;2022-08-23T01:09:44;16.00;99.90
19031;DHT22;9648;51.130;13.978;2022-08-23T01:12:16;16.00;99.90
19031;DHT22;9648;51.130;13.978;2022-08-23T01:14:50;16.00;99.90
19031;DHT22;9648;51.130;13.978;2022-08-23T01:17:21;16.00;99.90
19031;DHT22;9648;51.130;13.978;2022-08-23T01:19:52;16.00;99.90
19031;DHT22;9648;51.130;13.978;2022-08-23T01:22:24;15.90;99.90
19031;DHT22;9648;51.130;13.978;2022-08-23T01:24:54;15.90;99.90
19031;DHT22;9648;51.130;13.978;2022-08-23T01:27:21;15.90;99.90
19031;DHT22;9648;51.130;13.978;2022-08-23T01:29:48;15.90;99.90
19031;DHT22;9648;51.130;13.978;2022-08-23T01:32:17;15.90;99.90
19031;DHT22;9648;51.130;13.978;2022-08-23T01:34:44;15.90;99.90
19031;DHT22;9648;51.130;13.978;2022-08-23T01:37:11;15.90;99.90
19031;DHT22;9648;51.130;13.978;2022-08-23T01:39:39;15.90;99.90
19031;DHT22;9648;51.130;13.978;2022-08-23T01:42:07;15.90;99.90
19031;DHT22;9648;51.130;13.978;2022-08-23T01:44:34;15.90;99.90
19031;DHT22;9648;51.130;13.978;2022-08-23T01:47:01;15.90;99.90
19031;DHT22;9648;51.130;13.978;2022-08-23T01:49:28;16.00;99.90
19031;DHT22;9648;51.130;13.978;2022-08-23T01:51:55;15.90;99.90
19031;DHT22;9648;51.130;13.978;2022-08-23T01:54:21;15.90;99.90
19031;DHT22;9648;51.130;13.978;2022-08-23T01:56:48;15.90;99.90
19031;DHT22;9648;51.130;13.978;2022-08-23T01:59:16;16.00;99.90
19031;DHT22;9648;51.130;13.978;2022-08-23T02:01:43;15.90;99.90
19031;DHT22;9648;51.130;13.978;2022-08-23T02:04:11;16.00;99.90
19031;DHT22;9648;51.130;13.978;2022-08-23T02:06:38;15.90;99.90
19031;DHT22;9648;51.130;13.978;2022-08-23T02:09:05;15.90;99.90
19031;DHT22;9648;51.130;13.978;2022-08-23T02:11:34;15.90;99.90
19031;DHT22;9648;51.130;13.978;2022-08-23T02:14:07;16.00;99.90
19031;DHT22;9648;51.130;13.978;2022-08-23T02:16:39;15.90;99.90
19031;DHT22;9648;51.130;13.978;2022-08-23T02:19:09;15.90;99.90
19031;DHT22;9648;51.130;13.978;2022-08-23T02:21:37;15.90;99.90
19031;DHT22;9648;51.130;13.978;2022-08-23T02:24:06;15.90;99.90
19031;DHT22;9648;51.130;13.978;2022-08-23T02:26:34;15.90;99.90
19031;DHT22;9648;51.130;13.978;2022-08-23T02:29:01;15.80;99.90
19031;DHT22;9648;51.130;13.978;2022-08-23T02:31:28;15.80;99.90
19031;DHT22;9648;51.130;13.978;2022-08-23T02:33:56;15.90;99.90
19031;DHT22;9648;51.130;13.978;2022-08-23T02:36:23;15.90;99.90
19031;DHT22;9648;51.130;13.978;2022-08-23T02:38:51;15.90;99.90
19031;DHT22;9648;51.130;13.978;2022-08-23T02:41:18;16.00;99.90
19031;DHT22;9648;51.130;13.978;2022-08-23T02:43:44;15.90;99.90
19031;DHT22;9648;51.130;13.978;2022-08-23T02:46:11;16.00;99.90
19031;DHT22;9648;51.130;13.978;2022-08-23T02:48:38;15.90;99.90
19031;DHT22;9648;51.130;13.978;2022-08-23T02:51:07;15.90;99.90
19031;DHT22;9648;51.130;13.978;2022-08-23T02:53:35;15.90;99.90
19031;DHT22;9648;51.130;13.978;2022-08-23T02:56:03;15.90;99.90
19031;DHT22;9648;51.130;13.978;2022-08-23T02:58:30;15.80;99.90
19031;DHT22;9648;51.130;13.978;2022-08-23T03:00:57;15.90;99.90
19031;DHT22;9648;51.130;13.978;2022-08-23T03:03:24;15.80;99.90
19031;DHT22;9648;51.130;13.978;2022-08-23T03:05:51;15.80;99.90
19031;DHT22;9648;51.130;13.978;2022-08-23T03:08:20;15.80;99.90
19031;DHT22;9648;51.130;13.978;2022-08-23T03:10:49;15.80;99.90
19031;DHT22;9648;51.130;13.978;2022-08-23T03:13:17;15.80;99.90
19031;DHT22;9648;51.130;13.978;2022-08-23T03:15:44;15.80;99.90
19031;DHT22;9648;51.130;13.978;2022-08-23T03:18:10;15.80;99.90
19031;DHT22;9648;51.130;13.978;2022-08-23T03:20:38;15.80;99.90
19031;DHT22;9648;51.130;13.978;2022-08-23T03:23:06;15.90;99.90
19031;DHT22;9648;51.130;13.978;2022-08-23T03:25:34;15.80;99.90
19031;DHT22;9648;51.130;13.978;2022-08-23T03:28:02;15.80;99.90
19031;DHT22;9648;51.130;13.978;2022-08-23T03:30:30;15.80;99.90
19031;DHT22;9648;51.130;13.978;2022-08-23T03:32:58;15.80;99.90
19031;DHT22;9648;51.130;13.978;2022-08-23T03:35:25;15.80;99.90
19031;DHT22;9648;51.130;13.978;2022-08-23T03:37:52;15.80;99.90
19031;DHT22;9648;51.130;13.978;2022-08-23T03:40:19;15.80;99.90
19031;DHT22;9648;51.130;13.978;2022-08-23T03:42:49;15.80;99.90
19031;DHT22;9648;51.130;13.978;2022-08-23T03:45:16;15.80;99.90
19031;DHT22;9648;51.130;13.978;2022-08-23T03:47:44;15.80;99.90
19031;DHT22;9648;51.130;13.978;2022-08-23T03:50:11;15.80;99.90
19031;DHT22;9648;51.130;13.978;2022-08-23T03:52:38;15.80;99.90
19031;DHT22;9648;51.130;13.978;2022-08-23T03:55:05;15.80;99.90
19031;DHT22;9648;51.130;13.978;2022-08-23T03:57:32;15.80;99.90
19031;DHT22;9648;51.130;13.978;2022-08-23T04:00:00;15.80;99.90
19031;DHT22;9648;51.130;13.978;2022-08-23T04:02:27;15.80;99.90
19031;DHT22;9648;51.130;13.978;2022-08-23T04:04:54;15.80;99.90
19031;DHT22;9648;51.130;13.978;2022-08-23T04:07:22;15.70;99.90
19031;DHT22;9648;51.130;13.978;2022-08-23T04:09:49;15.80;99.90
19031;DHT22;9648;51.130;13.978;2022-08-23T04:12:15;15.70;99.90
19031;DHT22;9648;51.130;13.978;2022-08-23T04:14:42;15.70;99.90
19031;DHT22;9648;51.130;13.978;2022-08-23T04:17:11;15.70;99.90
19031;DHT22;9648;51.130;13.978;2022-08-23T04:19:38;15.70;99.90
19031;DHT22;9648;51.130;13.978;2022-08-23T04:22:04;15.70;99.90
19031;DHT22;9648;51.130;13.978;2022-08-23T04:24:37;15.70;99.90
19031;DHT22;9648;51.130;13.978;2022-08-23T04:27:04;15.80;99.90
19031;DHT22;9648;51.130;13.978;2022-08-23T04:29:31;15.70;99.90
19031;DHT22;9648;51.130;13.978;2022-08-23T04:31:57;15.80;99.90
19031;DHT22;9648;51.130;13.978;2022-08-23T04:34:25;15.80;99.90
19031;DHT22;9648;51.130;13.978;2022-08-23T04:36:53;15.80;99.90
19031;DHT22;9648;51.130;13.978;2022-08-23T04:39:20;15.80;99.90
19031;DHT22;9648;51.130;13.978;2022-08-23T04:41:46;15.80;99.90
19031;DHT22;9648;51.130;13.978;2022-08-23T04:44:31;15.80;99.90
19031;DHT22;9648;51.130;13.978;2022-08-23T04:46:57;15.80;99.90
19031;DHT22;9648;51.130;13.978;2022-08-23T04:49:25;15.90;99.90
19031;DHT22;9648;51.130;13.978;2022-08-23T04:51:52;15.90;99.90
19031;DHT22;9648;51.130;13.978;2022-08-23T04:54:20;16.00;99.90
19031;DHT22;9648;51.130;13.978;2022-08-23T04:56:47;15.90;99.90
19031;DHT22;9648;51.130;13.978;2022-08-23T04:59:14;15.90;99.90
19031;DHT22;9648;51.130;13.978;2022-08-23T05:01:41;16.00;99.90
19031;DHT22;9648;51.130;13.978;2022-08-23T05:04:08;15.90;99.90
19031;DHT22;9648;51.130;13.978;2022-08-23T05:06:36;16.00;99.90
19031;DHT22;9648;51.130;13.978;2022-08-23T05:09:04;16.00;99.90
19031;DHT22;9648;51.130;13.978;2022-08-23T05:11:31;16.10;99.90
19031;DHT22;9648;51.130;13.978;2022-08-23T05:13:57;16.10;99.90
19031;DHT22;9648;51.130;13.978;2022-08-23T05:16:24;16.10;99.90
19031;DHT22;9648;51.130;13.978;2022-08-23T05:18:51;16.10;99.90
19031;DHT22;9648;51.130;13.978;2022-08-23T05:21:20;16.10;99.90
19031;DHT22;9648;51.130;13.978;2022-08-23T05:23:48;16.20;99.90
19031;DHT22;9648;51.130;13.978;2022-08-23T05:26:16;16.20;99.90
19031;DHT22;9648;51.130;13.978;2022-08-23T05:28:44;16.20;99.90
19031;DHT22;9648;51.130;13.978;2022-08-23T05:31:16;16.20;99.90
19031;DHT22;9648;51.130;13.978;2022-08-23T05:33:44;16.20;99.90
19031;DHT22;9648;51.130;13.978;2022-08-23T05:36:13;16.20;99.90
19031;DHT22;9648;51.130;13.978;2022-08-23T05:38:40;16.20;99.90
19031;DHT22;9648;51.130;13.978;2022-08-23T05:41:09;16.20;99.90
19031;DHT22;9648;51.130;13.978;2022-08-23T05:43:36;16.20;99.90
19031;DHT22;9648;51.130;13.978;2022-08-23T05:46:05;16.20;99.90
19031;DHT22;9648;51.130;13.978;2022-08-23T05:48:33;16.20;99.90
19031;DHT22;9648;51.130;13.978;2022-08-23T05:51:10;16.20;99.90
19031;DHT22;9648;51.130;13.978;2022-08-23T05:53:38;16.20;99.90
19031;DHT22;9648;51.130;13.978;2022-08-23T05:56:13;16.20;99.90
19031;DHT22;9648;51.130;13.978;2022-08-23T05:58:40;16.20;99.90
19031;DHT22;9648;51.130;13.978;2022-08-23T06:01:07;16.20;99.90
19031;DHT22;9648;51.130;13.978;2022-08-23T06:03:35;16.20;99.90
19031;DHT22;9648;51.130;13.978;2022-08-23T06:06:02;16.20;99.90
19031;DHT22;9648;51.130;13.978;2022-08-23T06:08:31;16.20;99.90
19031;DHT22;9648;51.130;13.978;2022-08-23T06:11:00;16.20;99.90
19031;DHT22;9648;51.130;13.978;2022-08-23T06:13:28;16.20;99.90
19031;DHT22;9648;51.130;13.978;2022-08-23T06:15:56;16.20;99.90
19031;DHT22;9648;51.130;13.978;2022-08-23T06:18:23;16.30;99.90
19031;DHT22;9648;51.130;13.978;2022-08-23T06:20:59;16.30;99.90
19031;DHT22;9648;51.130;13.978;2022-08-23T06:23:26;16.30;99.90
19031;DHT22;9648;51.130;13.978;2022-08-23T06:25:53;16.40;99.90
19031;DHT22;9648;51.130;13.978;2022-08-23T06:28:20;16.40;99.90
19031;DHT22;9648;51.130;13.978;2022-08-23T06:30:48;16.40;99.90
19031;DHT22;9648;51.130;13.978;2022-08-23T06:33:15;16.40;99.90
19031;DHT22;9648;51.130;13.978;2022-08-23T06:35:42;16.40;99.90
19031;DHT22;9648;51.130;13.978;2022-08-23T06:38:09;16.40;99.90
19031;DHT22;9648;51.130;13.978;2022-08-23T06:40:37;16.40;99.90
19031;DHT22;9648;51.130;13.978;2022-08-23T06:43:04;16.50;99.90
19031;DHT22;9648;51.130;13.978;2022-08-23T06:45:30;16.50;99.90
19031;DHT22;9648;51.130;13.978;2022-08-23T06:47:59;16.50;99.90
19031;DHT22;9648;51.130;13.978;2022-08-23T06:50:26;16.50;99.90
19031;DHT22;9648;51.130;13.978;2022-08-23T06:52:53;16.50;99.90
19031;DHT22;9648;51.130;13.978;2022-08-23T06:55:20;16.50;99.90
19031;DHT22;9648;51.130;13.978;2022-08-23T06:57:46;16.50;99.90
19031;DHT22;9648;51.130;13.978;2022-08-23T07:00:13;16.60;99.90
19031;DHT22;9648;51.130;13.978;2022-08-23T07:02:40;16.60;99.90
19031;DHT22;9648;51.130;13.978;2022-08-23T07:05:08;16.70;99.90
19031;DHT22;9648;51.130;13.978;2022-08-23T07:07:35;16.70;99.90
19031;DHT22;9648;51.130;13.978;2022-08-23T07:10:03;16.70;99.90
19031;DHT22;9648;51.130;13.978;2022-08-23T07:12:30;16.80;99.90
19031;DHT22;9648;51.130;13.978;2022-08-23T07:14:56;16.90;99.90
19031;DHT22;9648;51.130;13.978;2022-08-23T07:17:23;16.90;99.90
19031;DHT22;9648;51.130;13.978;2022-08-23T07:19:50;17.00;99.90
19031;DHT22;9648;51.130;13.978;2022-08-23T07:22:18;17.00;99.90
19031;DHT22;9648;51.130;13.978;2022-08-23T07:24:45;17.10;99.90
19031;DHT22;9648;51.130;13.978;2022-08-23T07:27:12;17.10;99.90
19031;DHT22;9648;51.130;13.978;2022-08-23T07:29:39;17.20;99.90
19031;DHT22;9648;51.130;13.978;2022-08-23T07:32:07;17.30;99.90
19031;DHT22;9648;51.130;13.978;2022-08-23T07:34:35;17.40;99.90
19031;DHT22;9648;51.130;13.978;2022-08-23T07:37:02;17.60;99.90
19031;DHT22;9648;51.130;13.978;2022-08-23T07:39:31;17.60;99.90
19031;DHT22;9648;51.130;13.978;2022-08-23T07:41:58;17.60;99.90
19031;DHT22;9648;51.130;13.978;2022-08-23T07:44:25;17.50;99.90
19031;DHT22;9648;51.130;13.978;2022-08-23T07:46:52;17.50;99.90
19031;DHT22;9648;51.130;13.978;2022-08-23T07:49:19;17.40;99.90
19031;DHT22;9648;51.130;13.978;2022-08-23T07:51:48;17.40;99.90
19031;DHT22;9648;51.130;13.978;2022-08-23T07:54:16;17.40;99.90
19031;DHT22;9648;51.130;13.978;2022-08-23T07:56:45;17.40;99.90
19031;DHT22;9648;51.130;13.978;2022-08-23T07:59:12;17.40;99.90
19031;DHT22;9648;51.130;13.978;2022-08-23T08:01:40;17.40;99.90
19031;DHT22;9648;51.130;13.978;2022-08-23T08:04:07;17.40;99.90
19031;DHT22;9648;51.130;13.978;2022-08-23T08:06:39;17.50;99.90
19031;DHT22;9648;51.130;13.978;2022-08-23T08:09:06;17.50;99.90
19031;DHT22;9648;51.130;13.978;2022-08-23T08:11:34;17.50;99.90
19031;DHT22;9648;51.130;13.978;2022-08-23T08:14:05;17.50;99.90
19031;DHT22;9648;51.130;13.978;2022-08-23T08:16:35;17.50;99.90
19031;DHT22;9648;51.130;13.978;2022-08-23T08:19:04;17.50;99.90
19031;DHT22;9648;51.130;13.978;2022-08-23T08:21:31;17.50;99.90
19031;DHT22;9648;51.130;13.978;2022-08-23T08:23:59;17.50;99.90
19031;DHT22;9648;51.130;13.978;2022-08-23T08:26:26;17.50;99.90
19031;DHT22;9648;51.130;13.978;2022-08-23T08:28:53;17.60;99.90
19031;DHT22;9648;51.130;13.978;2022-08-23T08:31:22;17.70;99.90
19031;DHT22;9648;51.130;13.978;2022-08-23T08:33:49;17.70;99.90
19031;DHT22;9648;51.130;13.978;2022-08-23T08:36:32;17.80;99.90
19031;DHT22;9648;51.130;13.978;2022-08-23T08:39:01;17.80;99.90
19031;DHT22;9648;51.130;13.978;2022-08-23T08:41:47;17.90;99.90
19031;DHT22;9648;51.130;13.978;2022-08-23T08:44:30;18.00;99.90
19031;DHT22;9648;51.130;13.978;2022-08-23T08:47:03;18.00;99.90
19031;DHT22;9648;51.130;13.978;2022-08-23T08:49:35;18.10;99.90
19031;DHT22;9648;51.130;13.978;2022-08-23T08:52:12;18.10;99.90
19031;DHT22;9648;51.130;13.978;2022-08-23T08:54:42;18.20;99.90
19031;DHT22;9648;51.130;13.978;2022-08-23T08:57:12;18.10;99.90
19031;DHT22;9648;51.130;13.978;2022-08-23T08:59:46;18.10;99.90
19031;DHT22;9648;51.130;13.978;2022-08-23T09:02:20;18.10;99.90
19031;DHT22;9648;51.130;13.978;2022-08-23T09:04:48;18.10;99.90
19031;DHT22;9648;51.130;13.978;2022-08-23T09:07:21;18.20;99.90
19031;DHT22;9648;51.130;13.978;2022-08-23T09:10:08;18.20;99.90
19031;DHT22;9648;51.130;13.978;2022-08-23T09:12:45;18.10;99.90
19031;DHT22;9648;51.130;13.978;2022-08-23T09:15:22;18.10;99.90
19031;DHT22;9648;51.130;13.978;2022-08-23T09:17:55;18.10;99.90
19031;DHT22;9648;51.130;13.978;2022-08-23T09:20:25;18.10;99.90
19031;DHT22;9648;51.130;13.978;2022-08-23T09:22:58;18.20;99.90
19031;DHT22;9648;51.130;13.978;2022-08-23T09:25:30;18.20;99.90
19031;DHT22;9648;51.130;13.978;2022-08-23T09:27:56;18.20;99.90
19031;DHT22;9648;51.130;13.978;2022-08-23T09:30:44;18.20;99.90
19031;DHT22;9648;51.130;13.978;2022-08-23T09:33:16;18.30;99.90
19031;DHT22;9648;51.130;13.978;2022-08-23T09:35:43;18.40;99.90
19031;DHT22;9648;51.130;13.978;2022-08-23T09:38:16;18.50;99.90
19031;DHT22;9648;51.130;13.978;2022-08-23T09:40:47;18.60;99.90
19031;DHT22;9648;51.130;13.978;2022-08-23T09:43:15;18.70;99.90
19031;DHT22;9648;51.130;13.978;2022-08-23T09:45:55;18.60;99.90
19031;DHT22;9648;51.130;13.978;2022-08-23T09:48:35;18.60;99.90
19031;DHT22;9648;51.130;13.978;2022-08-23T09:51:10;18.60;99.90
19031;DHT22;9648;51.130;13.978;2022-08-23T09:53:42;18.60;99.90
19031;DHT22;9648;51.130;13.978;2022-08-23T09:56:15;18.50;99.90
19031;DHT22;9648;51.130;13.978;2022-08-23T09:58:45;18.50;99.90
19031;DHT22;9648;51.130;13.978;2022-08-23T10:01:19;18.60;99.90
19031;DHT22;9648;51.130;13.978;2022-08-23T10:04:07;18.60;99.90
19031;DHT22;9648;51.130;13.978;2022-08-23T10:06:35;18.50;99.90
19031;DHT22;9648;51.130;13.978;2022-08-23T10:09:04;18.50;99.90
19031;DHT22;9648;51.130;13.978;2022-08-23T10:11:36;18.60;99.90
19031;DHT22;9648;51.130;13.978;2022-08-23T10:14:03;18.50;99.90
19031;DHT22;9648;51.130;13.978;2022-08-23T10:16:39;18.60;99.90
19031;DHT22;9648;51.130;13.978;2022-08-23T10:19:17;18.60;99.90
19031;DHT22;9648;51.130;13.978;2022-08-23T10:21:51;18.60;99.90
19031;DHT22;9648;51.130;13.978;2022-08-23T10:24:28;18.70;99.90
19031;DHT22;9648;51.130;13.978;2022-08-23T10:27:15;18.70;99.90
19031;DHT22;9648;51.130;13.978;2022-08-23T10:30:05;18.80;99.90
19031;DHT22;9648;51.130;13.978;2022-08-23T10:32:44;18.90;99.90
19031;DHT22;9648;51.130;13.978;2022-08-23T10:35:25;18.90;99.90
19031;DHT22;9648;51.130;13.978;2022-08-23T10:38:02;18.90;99.90
19031;DHT22;9648;51.130;13.978;2022-08-23T10:40:38;18.90;99.90
19031;DHT22;9648;51.130;13.978;2022-08-23T10:43:14;18.80;99.90
19031;DHT22;9648;51.130;13.978;2022-08-23T10:45:45;18.80;99.90
19031;DHT22;9648;51.130;13.978;2022-08-23T10:48:21;18.70;99.90
19031;DHT22;9648;51.130;13.978;2022-08-23T10:50:56;18.70;99.90
19031;DHT22;9648;51.130;13.978;2022-08-23T10:53:30;18.60;99.90
19031;DHT22;9648;51.130;13.978;2022-08-23T10:55:58;18.60;99.90
19031;DHT22;9648;51.130;13.978;2022-08-23T10:58:32;18.60;99.90
19031;DHT22;9648;51.130;13.978;2022-08-23T11:01:00;18.50;99.90
19031;DHT22;9648;51.130;13.978;2022-08-23T11:03:29;18.50;99.90
19031;DHT22;9648;51.130;13.978;2022-08-23T11:09:07;18.40;99.90
19031;DHT22;9648;51.130;13.978;2022-08-23T11:11:41;18.40;99.90
19031;DHT22;9648;51.130;13.978;2022-08-23T11:14:11;18.30;99.90
19031;DHT22;9648;51.130;13.978;2022-08-23T11:16:38;18.30;99.90
19031;DHT22;9648;51.130;13.978;2022-08-23T11:19:12;18.30;99.90
19031;DHT22;9648;51.130;13.978;2022-08-23T11:21:43;18.30;99.90
19031;DHT22;9648;51.130;13.978;2022-08-23T11:27:26;18.30;99.90
19031;DHT22;9648;51.130;13.978;2022-08-23T11:29:55;18.40;99.90
19031;DHT22;9648;51.130;13.978;2022-08-23T11:32:35;18.40;99.90
19031;DHT22;9648;51.130;13.978;2022-08-23T11:35:11;18.50;99.90
19031;DHT22;9648;51.130;13.978;2022-08-23T11:37:53;18.60;99.90
19031;DHT22;9648;51.130;13.978;2022-08-23T11:43:28;18.90;99.90
19031;DHT22;9648;51.130;13.978;2022-08-23T11:52:15;19.30;99.90
19031;DHT22;9648;51.130;13.978;2022-08-23T11:55:00;19.30;99.90
19031;DHT22;9648;51.130;13.978;2022-08-23T11:57:43;19.30;99.90
19031;DHT22;9648;51.130;13.978;2022-08-23T12:00:20;19.40;99.90
19031;DHT22;9648;51.130;13.978;2022-08-23T12:02:52;19.40;99.90
19031;DHT22;9648;51.130;13.978;2022-08-23T12:08:49;19.50;99.90
19031;DHT22;9648;51.130;13.978;2022-08-23T12:11:18;19.60;99.90
19031;DHT22;9648;51.130;13.978;2022-08-23T12:14:32;19.60;99.90
19031;DHT22;9648;51.130;13.978;2022-08-23T12:17:04;19.50;99.90
19031;DHT22;9648;51.130;13.978;2022-08-23T12:19:53;19.60;99.90
19031;DHT22;9648;51.130;13.978;2022-08-23T12:22:25;19.70;99.90
19031;DHT22;9648;51.130;13.978;2022-08-23T12:24:56;19.80;99.90
19031;DHT22;9648;51.130;13.978;2022-08-23T12:27:28;19.80;99.90
19031;DHT22;9648;51.130;13.978;2022-08-23T12:30:03;19.80;99.90
19031;DHT22;9648;51.130;13.978;2022-08-23T12:32:38;19.80;99.90
19031;DHT22;9648;51.130;13.978;2022-08-23T12:35:19;19.80;99.90
19031;DHT22;9648;51.130;13.978;2022-08-23T12:37:56;19.80;99.90
19031;DHT22;9648;51.130;13.978;2022-08-23T12:40:30;19.80;99.90
19031;DHT22;9648;51.130;13.978;2022-08-23T12:43:05;19.90;99.90
19031;DHT22;9648;51.130;13.978;2022-08-23T12:45:39;20.00;99.90
19031;DHT22;9648;51.130;13.978;2022-08-23T12:48:10;20.20;99.90
19031;DHT22;9648;51.130;13.978;2022-08-23T12:50:39;20.30;99.90
19031;DHT22;9648;51.130;13.978;2022-08-23T12:53:08;20.30;99.90
19031;DHT22;9648;51.130;13.978;2022-08-23T12:55:38;20.30;99.90
19031;DHT22;9648;51.130;13.978;2022-08-23T12:58:07;20.20;99.90
19031;DHT22;9648;51.130;13.978;2022-08-23T13:00:38;20.10;99.90
19031;DHT22;9648;51.130;13.978;2022-08-23T13:03:14;20.10;99.90
19031;DHT22;9648;51.130;13.978;2022-08-23T13:05:45;20.20;99.90
19031;DHT22;9648;51.130;13.978;2022-08-23T13:08:15;20.20;99.90
19031;DHT22;9648;51.130;13.978;2022-08-23T13:10:43;20.30;99.90
19031;DHT22;9648;51.130;13.978;2022-08-23T13:13:13;20.40;99.90
19031;DHT22;9648;51.130;13.978;2022-08-23T13:15:46;20.50;99.90
19031;DHT22;9648;51.130;13.978;2022-08-23T13:18:32;20.60;99.90
19031;DHT22;9648;51.130;13.978;2022-08-23T13:21:26;20.80;99.90
19031;DHT22;9648;51.130;13.978;2022-08-23T13:23:55;20.90;99.90
19031;DHT22;9648;51.130;13.978;2022-08-23T13:26:33;21.00;99.90
19031;DHT22;9648;51.130;13.978;2022-08-23T13:29:06;21.00;99.90
19031;DHT22;9648;51.130;13.978;2022-08-23T13:31:58;21.00;99.90
19031;DHT22;9648;51.130;13.978;2022-08-23T13:34:33;21.30;99.90
19031;DHT22;9648;51.130;13.978;2022-08-23T13:37:01;21.30;99.90
19031;DHT22;9648;51.130;13.978;2022-08-23T13:39:30;21.30;99.90
19031;DHT22;9648;51.130;13.978;2022-08-23T13:41:57;21.30;99.90
19031;DHT22;9648;51.130;13.978;2022-08-23T13:44:25;21.40;99.90
19031;DHT22;9648;51.130;13.978;2022-08-23T13:46:56;21.40;99.90
19031;DHT22;9648;51.130;13.978;2022-08-23T13:49:24;21.40;99.90
19031;DHT22;9648;51.130;13.978;2022-08-23T13:52:07;21.40;99.90
19031;DHT22;9648;51.130;13.978;2022-08-23T13:54:34;21.20;99.90
19031;DHT22;9648;51.130;13.978;2022-08-23T13:57:05;21.10;99.90
19031;DHT22;9648;51.130;13.978;2022-08-23T13:59:35;21.00;99.90
19031;DHT22;9648;51.130;13.978;2022-08-23T14:02:06;20.90;99.90
19031;DHT22;9648;51.130;13.978;2022-08-23T14:04:35;20.80;99.90
19031;DHT22;9648;51.130;13.978;2022-08-23T14:07:04;20.60;99.90
19031;DHT22;9648;51.130;13.978;2022-08-23T14:09:31;20.40;99.90
19031;DHT22;9648;51.130;13.978;2022-08-23T14:12:02;20.40;99.90
19031;DHT22;9648;51.130;13.978;2022-08-23T14:14:32;20.40;99.90
19031;DHT22;9648;51.130;13.978;2022-08-23T14:16:59;20.30;99.90
19031;DHT22;9648;51.130;13.978;2022-08-23T14:19:26;20.30;99.90
19031;DHT22;9648;51.130;13.978;2022-08-23T14:21:53;20.30;99.90
19031;DHT22;9648;51.130;13.978;2022-08-23T14:24:21;20.20;99.90
19031;DHT22;9648;51.130;13.978;2022-08-23T14:26:47;20.10;99.90
19031;DHT22;9648;51.130;13.978;2022-08-23T14:29:14;20.00;99.90
19031;DHT22;9648;51.130;13.978;2022-08-23T14:31:41;20.00;99.90
19031;DHT22;9648;51.130;13.978;2022-08-23T14:34:07;19.90;99.90
19031;DHT22;9648;51.130;13.978;2022-08-23T14:36:34;19.90;99.90
19031;DHT22;9648;51.130;13.978;2022-08-23T14:39:01;19.90;99.90
19031;DHT22;9648;51.130;13.978;2022-08-23T14:41:29;19.80;99.90
19031;DHT22;9648;51.130;13.978;2022-08-23T14:43:57;19.90;99.90
19031;DHT22;9648;51.130;13.978;2022-08-23T14:46:24;19.90;99.90
19031;DHT22;9648;51.130;13.978;2022-08-23T14:48:50;19.90;99.90
19031;DHT22;9648;51.130;13.978;2022-08-23T14:51:23;20.00;99.90
19031;DHT22;9648;51.130;13.978;2022-08-23T14:53:51;20.10;99.90
19031;DHT22;9648;51.130;13.978;2022-08-23T14:56:18;20.10;99.90
19031;DHT22;9648;51.130;13.978;2022-08-23T14:58:47;20.20;99.90
19031;DHT22;9648;51.130;13.978;2022-08-23T15:01:14;20.30;99.90
19031;DHT22;9648;51.130;13.978;2022-08-23T15:03:41;20.40;99.90
19031;DHT22;9648;51.130;13.978;2022-08-23T15:06:08;20.40;99.90
19031;DHT22;9648;51.130;13.978;2022-08-23T15:08:35;20.60;99.90
19031;DHT22;9648;51.130;13.978;2022-08-23T15:11:02;20.70;99.90
19031;DHT22;9648;51.130;13.978;2022-08-23T15:13:31;20.90;99.90
19031;DHT22;9648;51.130;13.978;2022-08-23T15:16:00;21.10;99.90
19031;DHT22;9648;51.130;13.978;2022-08-23T15:18:27;21.10;99.90
19031;DHT22;9648;51.130;13.978;2022-08-23T15:20:54;21.10;99.90
19031;DHT22;9648;51.130;13.978;2022-08-23T15:23:21;21.10;99.90
19031;DHT22;9648;51.130;13.978;2022-08-23T15:25:48;21.00;99.90
19031;DHT22;9648;51.130;13.978;2022-08-23T15:28:17;20.90;99.90
19031;DHT22;9648;51.130;13.978;2022-08-23T15:30:45;20.70;99.90
19031;DHT22;9648;51.130;13.978;2022-08-23T15:33:14;20.60;99.90
19031;DHT22;9648;51.130;13.978;2022-08-23T15:35:43;20.60;99.90
19031;DHT22;9648;51.130;13.978;2022-08-23T15:38:10;20.50;99.90
19031;DHT22;9648;51.130;13.978;2022-08-23T15:40:38;20.40;99.90
19031;DHT22;9648;51.130;13.978;2022-08-23T15:43:05;20.40;99.90
19031;DHT22;9648;51.130;13.978;2022-08-23T15:45:32;20.30;99.90
19031;DHT22;9648;51.130;13.978;2022-08-23T15:48:01;20.30;99.90
19031;DHT22;9648;51.130;13.978;2022-08-23T15:50:32;20.30;99.90
19031;DHT22;9648;51.130;13.978;2022-08-23T15:53:00;20.20;99.90
19031;DHT22;9648;51.130;13.978;2022-08-23T15:55:28;20.30;99.90
19031;DHT22;9648;51.130;13.978;2022-08-23T15:57:56;20.30;99.90
19031;DHT22;9648;51.130;13.978;2022-08-23T16:00:24;20.30;99.90
19031;DHT22;9648;51.130;13.978;2022-08-23T16:02:52;20.30;99.90
19031;DHT22;9648;51.130;13.978;2022-08-23T16:05:19;20.30;99.90
19031;DHT22;9648;51.130;13.978;2022-08-23T16:07:47;20.30;99.90